Needmore, Kentucky
Current Conditions -  °F | °C
As of 1:15 AM on Saturday 29 Nov 2014 (Local Time) from KFGX Reporting Station
Scattered Clouds Scattered Clouds  
Wind Chill: 32°   Ceiling: Unl
Heat Index: 32°   Visibility: 10mi
Dew Point: 20°   Wind: 0mph
Humidity: 63%   Direction: NA
Pressure: 30.12"   Gusts: NA
Location:  38.4934°N, 83.7754°W
Report Text: KFGX 290615Z AUTO 00000KT 10SM SCT065 00/M06 A3012 RMK AO2 T10021064
Loading
Personal Weather Stations






























Interactive Weather Map New forecast layout! Learn more

10-Day Weather Forecast

Advertisements
Track Severe Weather on mobile